createdAt,value
2018-12-05T00:00:09.937Z,19.23
2018-12-05T00:02:41.343Z,53.40
2018-12-05T00:05:13.512Z,40.90
2018-12-05T00:07:45.104Z,34.17
2018-12-05T00:10:17.154Z,34.23
2018-12-05T00:12:50.387Z,41.67
2018-12-05T00:15:21.793Z,8.47
2018-12-05T00:17:52.750Z,15.87
2018-12-05T00:20:23.950Z,20.63
2018-12-05T00:22:55.868Z,15.57
2018-12-05T00:25:26.558Z,42.13
2018-12-05T00:27:57.359Z,36.50
2018-12-05T00:30:28.973Z,33.20
2018-12-05T00:33:00.792Z,42.63
2018-12-05T00:35:31.862Z,26.83
2018-12-05T00:38:02.783Z,19.33
2018-12-05T00:40:33.919Z,10.30
2018-12-05T00:43:05.209Z,20.37
2018-12-05T00:45:36.911Z,9.57
2018-12-05T00:48:08.252Z,43.67
2018-12-05T00:50:39.011Z,45.27
2018-12-05T00:53:10.813Z,14.80
2018-12-05T00:55:45.155Z,30.67
2018-12-05T00:58:16.526Z,29.67
2018-12-05T01:00:47.655Z,34.20
2018-12-05T01:03:18.409Z,90.87
2018-12-05T01:05:49.859Z,60.00
2018-12-05T01:08:22.752Z,50.63
2018-12-05T01:10:54.121Z,24.30
2018-12-05T01:13:25.334Z,10.70
2018-12-05T01:15:57.915Z,22.33
2018-12-05T01:18:29.663Z,65.27
2018-12-05T01:21:01.451Z,77.73
2018-12-05T01:23:32.241Z,66.77
2018-12-05T01:26:02.984Z,38.50
2018-12-05T01:28:33.654Z,19.27
2018-12-05T01:31:04.450Z,33.60
2018-12-05T01:33:35.950Z,82.63
2018-12-05T01:36:06.996Z,23.83
2018-12-05T01:38:37.772Z,12.37
2018-12-05T01:41:10.233Z,7.40
2018-12-05T01:43:59.622Z,11.47
2018-12-05T01:46:33.898Z,26.23
2018-12-05T01:49:08.111Z,19.93
2018-12-05T01:51:43.574Z,18.77
2018-12-05T01:54:25.985Z,25.80
2018-12-05T01:57:01.423Z,33.10
2018-12-05T02:02:43.459Z,65.60
2018-12-05T02:05:14.442Z,61.23
2018-12-05T02:07:45.187Z,28.70
2018-12-05T02:10:15.982Z,21.30
2018-12-05T02:12:46.725Z,8.23
2018-12-05T02:15:17.399Z,10.13
2018-12-05T02:17:48.110Z,17.03
2018-12-05T02:20:18.766Z,8.07
2018-12-05T02:22:49.638Z,12.47
2018-12-05T02:25:20.748Z,15.43
2018-12-05T02:27:51.462Z,9.47
2018-12-05T02:30:22.255Z,17.10
2018-12-05T02:32:53.037Z,64.97
2018-12-05T02:35:23.758Z,56.23
2018-12-05T02:37:54.538Z,40.20
2018-12-05T02:40:25.401Z,27.17
2018-12-05T02:42:56.129Z,23.20
2018-12-05T02:45:27.255Z,27.90
2018-12-05T02:47:57.985Z,36.27
2018-12-05T02:50:28.750Z,109.20
2018-12-05T02:52:59.539Z,119.00
2018-12-05T02:55:30.249Z,63.80
2018-12-05T02:58:01.080Z,61.70
2018-12-05T03:00:31.815Z,31.03
2018-12-05T03:03:02.937Z,20.83
2018-12-05T03:05:33.604Z,17.37
2018-12-05T03:08:04.380Z,23.10
2018-12-05T03:10:35.075Z,13.10
2018-12-05T03:13:08.220Z,13.70
2018-12-05T03:15:39.111Z,20.63
2018-12-05T03:18:09.948Z,93.60
2018-12-05T03:20:40.727Z,68.20
2018-12-05T03:23:11.586Z,30.43
2018-12-05T03:25:42.292Z,20.87
2018-12-05T03:28:13.258Z,21.30
2018-12-05T03:30:44.051Z,18.87
2018-12-05T03:33:14.783Z,13.57
2018-12-05T03:35:45.704Z,14.03
2018-12-05T03:38:17.423Z,30.50
2018-12-05T03:40:48.494Z,30.40
2018-12-05T03:43:21.416Z,48.60
2018-12-05T03:45:53.151Z,67.73
2018-12-05T03:48:23.802Z,27.77
2018-12-05T03:50:55.466Z,20.10
2018-12-05T03:53:26.907Z,29.60
2018-12-05T03:55:57.687Z,28.33
2018-12-05T03:58:29.289Z,47.97
2018-12-05T04:01:00.435Z,90.77
2018-12-05T04:03:34.980Z,33.37
2018-12-05T04:06:06.169Z,23.37
2018-12-05T04:08:36.845Z,50.77
2018-12-05T04:11:07.470Z,23.57
2018-12-05T04:13:38.445Z,30.43
2018-12-05T04:16:09.306Z,24.77
2018-12-05T04:18:40.778Z,21.13
2018-12-05T04:21:11.553Z,17.77
2018-12-05T04:23:42.470Z,34.60
2018-12-05T04:26:13.240Z,40.63
2018-12-05T04:28:43.979Z,41.97
2018-12-05T04:31:15.090Z,35.43
2018-12-05T04:33:46.089Z,21.70
2018-12-05T04:36:17.735Z,21.83
2018-12-05T04:38:48.487Z,32.07
2018-12-05T04:41:19.167Z,46.67
2018-12-05T04:43:50.437Z,41.23
2018-12-05T04:46:21.444Z,60.57
2018-12-05T04:48:52.113Z,66.93
2018-12-05T04:51:23.136Z,37.70
2018-12-05T04:53:53.931Z,40.13
2018-12-05T04:56:24.835Z,57.23
2018-12-05T04:58:55.762Z,42.80
2018-12-05T05:01:26.471Z,52.37
2018-12-05T05:03:57.396Z,50.33
2018-12-05T05:06:28.196Z,67.73
2018-12-05T05:08:59.173Z,89.17
2018-12-05T05:11:30.369Z,94.23
2018-12-05T05:14:01.322Z,89.93
2018-12-05T05:16:32.300Z,64.27
2018-12-05T05:19:03.091Z,75.10
2018-12-05T05:21:33.833Z,46.23
2018-12-05T05:24:04.635Z,37.37
2018-12-05T05:26:35.427Z,29.80
2018-12-05T05:29:06.340Z,53.87
2018-12-05T05:31:37.443Z,85.37
2018-12-05T05:34:09.118Z,93.13
2018-12-05T05:36:40.071Z,57.73
2018-12-05T05:39:10.733Z,64.17
2018-12-05T05:41:41.701Z,47.00
2018-12-05T05:44:12.516Z,49.47
2018-12-05T05:46:43.963Z,35.60
2018-12-05T05:49:14.738Z,26.33
2018-12-05T05:51:46.266Z,56.00
2018-12-05T05:54:17.177Z,56.63
2018-12-05T05:56:52.485Z,95.00
2018-12-05T05:59:23.330Z,40.10
2018-12-05T06:01:54.122Z,38.90
2018-12-05T06:04:24.976Z,41.17
2018-12-05T06:06:55.703Z,60.67
2018-12-05T06:09:26.458Z,88.03
2018-12-05T06:11:57.203Z,48.70
2018-12-05T06:14:27.944Z,49.73
2018-12-05T06:16:58.623Z,50.07
2018-12-05T06:19:29.314Z,35.80
2018-12-05T06:22:00.311Z,56.33
2018-12-05T06:24:31.151Z,66.47
2018-12-05T06:27:01.855Z,41.80
2018-12-05T06:29:32.564Z,27.03
2018-12-05T06:32:03.319Z,40.97
2018-12-05T06:34:34.483Z,27.77
2018-12-05T06:37:05.668Z,39.10
2018-12-05T06:39:37.205Z,32.17
2018-12-05T06:42:07.973Z,27.47
2018-12-05T06:44:38.676Z,31.50
2018-12-05T06:47:09.376Z,40.90
2018-12-05T06:49:41.037Z,35.97
2018-12-05T06:52:11.812Z,72.80
2018-12-05T06:54:42.562Z,41.50
2018-12-05T06:57:13.369Z,36.80
2018-12-05T06:59:44.580Z,36.40
2018-12-05T07:02:16.074Z,59.93
2018-12-05T07:04:46.843Z,97.90
2018-12-05T07:07:17.699Z,66.07
2018-12-05T07:09:48.629Z,45.07
2018-12-05T07:12:19.313Z,50.80
2018-12-05T07:14:50.180Z,48.70
2018-12-05T07:17:22.773Z,56.57
2018-12-05T07:19:53.447Z,60.43
2018-12-05T07:22:24.133Z,53.57
2018-12-05T07:24:55.419Z,56.17
2018-12-05T07:27:26.193Z,35.77
2018-12-05T07:29:57.018Z,57.07
2018-12-05T07:32:27.827Z,56.37
2018-12-05T07:34:58.862Z,92.93
2018-12-05T07:37:29.616Z,76.77
2018-12-05T07:40:01.661Z,67.00
2018-12-05T07:42:32.419Z,98.57
2018-12-05T07:45:09.099Z,60.50
2018-12-05T07:47:39.826Z,59.07
2018-12-05T07:50:10.562Z,60.00
2018-12-05T07:52:41.196Z,72.23
2018-12-05T07:55:11.942Z,53.80
2018-12-05T07:57:42.686Z,42.40
2018-12-05T08:00:13.452Z,97.47
2018-12-05T08:02:44.221Z,83.13
2018-12-05T08:05:14.955Z,71.70
2018-12-05T08:07:46.131Z,61.00
2018-12-05T08:10:16.931Z,47.90
2018-12-05T08:12:47.670Z,46.40
2018-12-05T08:15:18.451Z,26.83
2018-12-05T08:17:49.336Z,36.63
2018-12-05T08:20:20.534Z,94.07
2018-12-05T08:22:51.895Z,147.03
2018-12-05T08:25:23.011Z,135.90
2018-12-05T08:27:53.850Z,140.83
2018-12-05T08:30:25.901Z,77.33
2018-12-05T08:32:57.286Z,91.53
2018-12-05T08:35:28.831Z,117.53
2018-12-05T08:38:00.488Z,41.80
2018-12-05T08:40:31.398Z,44.27
2018-12-05T08:43:02.129Z,62.30
2018-12-05T08:45:33.147Z,37.43
2018-12-05T08:48:03.900Z,78.70
2018-12-05T08:50:34.702Z,37.40
2018-12-05T08:53:05.434Z,20.87
2018-12-05T08:55:36.339Z,24.77
2018-12-05T08:58:07.028Z,30.63
2018-12-05T09:00:37.773Z,23.53
2018-12-05T09:03:08.436Z,25.77
2018-12-05T09:05:39.161Z,30.27
2018-12-05T09:08:09.944Z,40.83
2018-12-05T09:10:40.583Z,29.77
2018-12-05T09:13:11.275Z,23.80
2018-12-05T09:15:42.011Z,20.87
2018-12-05T09:18:12.711Z,28.20
2018-12-05T09:20:43.479Z,27.07
2018-12-05T09:23:14.208Z,25.40
2018-12-05T09:25:44.972Z,31.90
2018-12-05T09:28:15.704Z,27.17
2018-12-05T09:30:46.416Z,36.00
2018-12-05T09:33:17.147Z,28.97
2018-12-05T09:35:47.919Z,27.13
2018-12-05T09:38:18.851Z,24.47
2018-12-05T09:40:49.898Z,19.80
2018-12-05T09:43:20.850Z,26.27
2018-12-05T09:45:51.567Z,23.43
2018-12-05T09:48:22.284Z,24.47
2018-12-05T09:50:52.993Z,28.87
2018-12-05T09:53:23.815Z,23.13
2018-12-05T09:55:54.641Z,19.90
2018-12-05T09:58:25.336Z,27.47
2018-12-05T10:00:56.107Z,20.63
2018-12-05T10:03:26.999Z,20.17
2018-12-05T10:05:57.707Z,25.93
2018-12-05T10:08:28.460Z,23.93
2018-12-05T10:10:59.156Z,21.73
2018-12-05T10:13:30.007Z,17.63
2018-12-05T10:16:00.790Z,21.50
2018-12-05T10:18:31.454Z,15.20
2018-12-05T10:21:02.118Z,16.50
2018-12-05T10:23:32.949Z,16.00
2018-12-05T10:26:03.699Z,16.00
2018-12-05T10:28:34.371Z,15.47
2018-12-05T10:31:05.121Z,14.23
2018-12-05T10:33:35.901Z,25.33
2018-12-05T10:36:06.654Z,19.23
2018-12-05T10:38:37.438Z,14.40
2018-12-05T10:41:08.491Z,15.63
2018-12-05T10:43:39.230Z,13.93
2018-12-05T10:46:09.987Z,13.43
2018-12-05T10:48:40.788Z,11.93
2018-12-05T10:51:11.600Z,14.83
2018-12-05T10:53:42.369Z,16.90
2018-12-05T10:56:13.171Z,15.57
2018-12-05T10:58:43.841Z,14.73
2018-12-05T11:01:31.298Z,14.33
2018-12-05T11:04:17.169Z,13.97
2018-12-05T11:07:05.011Z,14.87
2018-12-05T11:09:52.755Z,15.33
2018-12-05T11:13:00.176Z,14.90
2018-12-05T11:15:47.864Z,22.00
2018-12-05T11:18:35.684Z,18.97
2018-12-05T11:21:23.233Z,24.17
2018-12-05T11:24:00.502Z,27.53
2018-12-05T11:26:33.446Z,24.00
2018-12-05T11:29:04.233Z,25.53
2018-12-05T11:31:34.951Z,24.90
2018-12-05T11:34:05.774Z,30.57
2018-12-05T11:36:36.550Z,31.37
2018-12-05T11:39:09.176Z,31.27
2018-12-05T11:41:39.899Z,33.93
2018-12-05T11:44:10.591Z,28.03
2018-12-05T11:46:41.280Z,29.17
2018-12-05T11:49:12.498Z,32.07
2018-12-05T11:51:43.216Z,36.60
2018-12-05T11:54:14.428Z,32.70
2018-12-05T11:56:45.288Z,39.13
2018-12-05T11:59:16.022Z,33.50
2018-12-05T12:01:46.757Z,27.43
2018-12-05T12:04:17.511Z,28.90
2018-12-05T12:06:48.261Z,27.83
2018-12-05T12:09:18.922Z,28.83
2018-12-05T12:11:49.802Z,28.17
2018-12-05T12:14:20.558Z,32.63
2018-12-05T12:16:51.300Z,25.40
2018-12-05T12:19:21.971Z,34.03
2018-12-05T12:21:52.869Z,32.57
2018-12-05T12:24:24.121Z,35.67
2018-12-05T12:26:54.879Z,29.70
2018-12-05T12:29:25.596Z,33.47
2018-12-05T12:31:56.355Z,25.80
2018-12-05T12:34:27.447Z,28.87
2018-12-05T12:36:58.099Z,26.50
2018-12-05T12:39:28.916Z,23.53
2018-12-05T12:41:59.622Z,29.43
2018-12-05T12:44:30.287Z,24.17
2018-12-05T12:47:01.014Z,27.53
2018-12-05T12:49:31.880Z,22.33
2018-12-05T12:52:02.652Z,22.33
2018-12-05T12:54:33.476Z,30.90
2018-12-05T12:57:04.123Z,34.97
2018-12-05T12:59:34.839Z,27.10
2018-12-05T13:02:05.543Z,21.87
2018-12-05T13:04:36.300Z,23.70
2018-12-05T13:07:07.108Z,24.63
2018-12-05T13:09:37.852Z,26.13
2018-12-05T13:12:10.971Z,25.30
2018-12-05T13:14:41.694Z,24.30
2018-12-05T13:17:12.395Z,24.97
2018-12-05T13:19:43.081Z,20.50
2018-12-05T13:22:13.786Z,21.00
2018-12-05T13:24:44.534Z,21.27
2018-12-05T13:27:15.287Z,25.50
2018-12-05T13:29:46.095Z,29.90
2018-12-05T13:32:16.867Z,19.57
2018-12-05T13:34:47.619Z,22.17
2018-12-05T13:37:18.343Z,17.67
2018-12-05T13:39:49.133Z,18.23
2018-12-05T13:42:19.891Z,19.17
2018-12-05T13:44:52.582Z,18.10
2018-12-05T13:47:23.355Z,19.20
2018-12-05T13:49:54.070Z,22.73
2018-12-05T13:52:24.903Z,24.60
2018-12-05T13:54:55.882Z,19.83
2018-12-05T13:57:26.675Z,22.50
2018-12-05T13:59:57.494Z,20.53
2018-12-05T14:02:28.443Z,28.13
2018-12-05T14:04:59.439Z,25.73
2018-12-05T14:07:30.200Z,26.87
2018-12-05T14:10:01.446Z,28.80
2018-12-05T14:12:39.578Z,28.33
2018-12-05T14:15:11.222Z,27.63
2018-12-05T14:17:41.896Z,29.30
2018-12-05T14:20:12.594Z,30.60
2018-12-05T14:22:43.284Z,25.60
2018-12-05T14:25:14.895Z,33.40
2018-12-05T14:27:45.678Z,27.23
2018-12-05T14:30:16.439Z,29.20
2018-12-05T14:32:47.279Z,23.40
2018-12-05T14:35:18.149Z,26.70
2018-12-05T14:37:48.814Z,24.93
2018-12-05T14:40:19.452Z,25.07
2018-12-05T14:42:50.189Z,22.50
2018-12-05T14:45:20.999Z,18.40
2018-12-05T14:47:51.777Z,23.10
2018-12-05T14:50:22.598Z,25.60
2018-12-05T14:52:53.323Z,22.77
2018-12-05T14:55:24.119Z,24.73
2018-12-05T14:57:54.880Z,19.90
2018-12-05T15:00:26.266Z,15.70
2018-12-05T15:02:57.011Z,14.90
2018-12-05T15:05:27.719Z,15.07
2018-12-05T15:07:58.582Z,18.00
2018-12-05T15:10:29.354Z,17.70
2018-12-05T15:13:00.060Z,23.73
2018-12-05T15:15:30.723Z,16.40
2018-12-05T15:18:01.455Z,19.07
2018-12-05T15:20:32.289Z,16.77
2018-12-05T15:23:03.106Z,21.63
2018-12-05T15:25:33.839Z,15.40
2018-12-05T15:28:04.614Z,20.83
2018-12-05T15:30:35.535Z,15.13
2018-12-05T15:33:06.335Z,16.90
2018-12-05T15:35:37.237Z,16.70
2018-12-05T15:38:08.166Z,20.97
2018-12-05T15:40:38.899Z,14.80
2018-12-05T15:43:11.840Z,16.90
2018-12-05T15:45:42.580Z,16.13
2018-12-05T15:48:13.374Z,18.80
2018-12-05T15:50:44.065Z,15.43
2018-12-05T15:53:14.761Z,15.23
2018-12-05T15:55:45.443Z,18.60
2018-12-05T15:58:16.209Z,14.80
2018-12-05T16:00:46.938Z,14.83
2018-12-05T16:03:17.870Z,15.10
2018-12-05T16:05:48.539Z,22.33
2018-12-05T16:08:19.214Z,16.63
2018-12-05T16:10:49.874Z,14.60
2018-12-05T16:13:20.608Z,14.83
2018-12-05T16:15:51.428Z,32.00
2018-12-05T16:18:22.174Z,28.63
2018-12-05T16:20:52.882Z,30.07
2018-12-05T16:23:23.621Z,20.50
2018-12-05T16:25:55.329Z,20.33
2018-12-05T16:28:26.253Z,23.53
2018-12-05T16:30:56.917Z,27.27
2018-12-05T16:33:27.612Z,24.83
2018-12-05T16:35:58.404Z,28.97
2018-12-05T16:38:29.199Z,25.87
2018-12-05T16:40:59.882Z,22.80
2018-12-05T16:43:30.560Z,24.07
2018-12-05T16:46:01.818Z,30.17
2018-12-05T16:48:32.542Z,28.20
2018-12-05T16:51:03.232Z,22.93
2018-12-05T16:53:34.189Z,25.33
2018-12-05T16:56:05.124Z,27.77
2018-12-05T16:58:36.028Z,23.50
2018-12-05T17:01:06.722Z,26.73
2018-12-05T17:03:37.415Z,28.70
2018-12-05T17:06:08.067Z,23.77
2018-12-05T17:08:38.746Z,26.33
2018-12-05T17:11:09.472Z,29.77
2018-12-05T17:13:43.304Z,22.03
2018-12-05T17:16:18.035Z,24.57
2018-12-05T17:18:46.623Z,25.20
2018-12-05T17:21:17.535Z,27.37
2018-12-05T17:23:48.415Z,29.40
2018-12-05T17:26:19.203Z,24.40
2018-12-05T17:28:50.002Z,26.67
2018-12-05T17:31:21.100Z,25.30
2018-12-05T17:33:51.771Z,30.93
2018-12-05T17:36:23.567Z,23.13
2018-12-05T17:38:54.497Z,31.23
2018-12-05T17:41:26.263Z,25.60
2018-12-05T17:43:56.939Z,22.70
2018-12-05T17:46:27.772Z,27.17
2018-12-05T17:48:58.538Z,25.40
2018-12-05T17:51:29.542Z,26.60
2018-12-05T17:54:14.564Z,24.70
2018-12-05T17:56:48.358Z,28.90
2018-12-05T17:59:20.734Z,30.33
2018-12-05T18:02:02.650Z,30.03
2018-12-05T18:04:34.243Z,44.67
2018-12-05T18:07:06.848Z,49.83
2018-12-05T18:09:39.356Z,35.17
2018-12-05T18:12:11.183Z,34.97
2018-12-05T18:14:42.082Z,44.63
2018-12-05T18:17:13.276Z,35.67
2018-12-05T18:19:44.507Z,41.77
2018-12-05T18:22:15.955Z,39.50
2018-12-05T18:24:47.794Z,40.83
2018-12-05T18:27:18.955Z,38.73
2018-12-05T18:29:52.777Z,37.10
2018-12-05T18:32:23.861Z,51.00
2018-12-05T18:34:58.509Z,46.23
2018-12-05T18:37:33.550Z,44.13
2018-12-05T18:40:07.463Z,39.33
2018-12-05T18:42:38.697Z,47.67
2018-12-05T18:45:10.434Z,43.17
2018-12-05T18:47:41.221Z,39.63
2018-12-05T18:50:15.399Z,38.57
2018-12-05T18:52:46.145Z,38.93
2018-12-05T18:55:16.961Z,51.33
2018-12-05T18:57:47.686Z,44.73
2018-12-05T19:00:20.980Z,39.63
2018-12-05T19:02:53.143Z,49.50
2018-12-05T19:05:24.543Z,52.10
2018-12-05T19:07:57.488Z,38.83
2018-12-05T19:10:28.396Z,43.37
2018-12-05T19:12:59.760Z,41.13
2018-12-05T19:15:30.875Z,42.17
2018-12-05T19:18:09.672Z,42.70
2018-12-05T19:20:40.570Z,42.93
2018-12-05T19:23:12.093Z,48.80
2018-12-05T19:25:42.838Z,47.40
2018-12-05T19:28:13.642Z,53.27
2018-12-05T19:30:44.498Z,49.77
2018-12-05T19:33:15.536Z,56.87
2018-12-05T19:35:46.640Z,59.20
2018-12-05T19:38:17.936Z,57.83
2018-12-05T19:40:49.122Z,48.13
2018-12-05T19:43:19.852Z,58.10
2018-12-05T19:45:51.566Z,55.97
2018-12-05T19:48:23.621Z,68.03
2018-12-05T19:50:54.291Z,55.93
2018-12-05T19:53:24.992Z,56.07
2018-12-05T19:55:55.925Z,59.33
2018-12-05T19:58:28.054Z,55.63
2018-12-05T20:00:59.733Z,53.93
2018-12-05T20:03:31.499Z,59.27
2018-12-05T20:06:02.301Z,50.23
2018-12-05T20:08:33.477Z,50.87
2018-12-05T20:11:04.578Z,51.17
2018-12-05T20:13:37.251Z,58.93
2018-12-05T20:16:08.406Z,46.23
2018-12-05T20:18:39.596Z,47.83
2018-12-05T20:23:56.435Z,38.13
2018-12-05T20:26:27.735Z,38.50
2018-12-05T20:29:00.188Z,35.53
2018-12-05T20:31:31.180Z,35.50
2018-12-05T20:34:03.058Z,33.17
2018-12-05T20:36:36.422Z,27.67
2018-12-05T20:39:11.288Z,20.50
2018-12-05T20:41:42.287Z,20.77
2018-12-05T20:44:13.578Z,27.77
2018-12-05T20:46:45.119Z,35.03
2018-12-05T20:49:16.049Z,32.07
2018-12-05T20:52:03.749Z,34.10
2018-12-05T20:54:39.800Z,32.97
2018-12-05T20:57:10.557Z,25.33
2018-12-05T20:59:47.811Z,24.50
2018-12-05T21:02:24.393Z,29.53
2018-12-05T21:04:56.071Z,30.23
2018-12-05T21:07:27.707Z,34.83
2018-12-05T21:09:58.984Z,24.13
2018-12-05T21:12:31.299Z,21.33
2018-12-05T21:15:02.447Z,23.60
2018-12-05T21:17:33.598Z,21.30
2018-12-05T21:20:04.429Z,24.17
2018-12-05T21:22:37.367Z,22.93
2018-12-05T21:25:08.404Z,23.10
2018-12-05T21:27:39.125Z,20.93
2018-12-05T21:30:10.146Z,17.90
2018-12-05T21:32:40.895Z,19.60
2018-12-05T21:35:11.670Z,15.33
2018-12-05T21:37:42.647Z,18.17
2018-12-05T21:40:14.292Z,11.23
2018-12-05T21:42:44.978Z,18.03
2018-12-05T21:45:17.151Z,12.03
2018-12-05T21:47:47.948Z,14.33
2018-12-05T21:50:19.243Z,15.80
2018-12-05T21:52:49.921Z,14.20
2018-12-05T21:55:20.919Z,17.40
2018-12-05T21:57:51.883Z,15.73
2018-12-05T22:00:26.022Z,11.80
2018-12-05T22:02:56.835Z,14.43
2018-12-05T22:05:28.264Z,11.70
2018-12-05T22:07:59.063Z,18.37
2018-12-05T22:10:29.836Z,12.77
2018-12-05T22:13:00.682Z,14.10
2018-12-05T22:15:32.779Z,10.80
2018-12-05T22:18:03.455Z,10.30
2018-12-05T22:20:34.657Z,15.47
2018-12-05T22:23:05.377Z,15.77
2018-12-05T22:25:36.674Z,13.33
2018-12-05T22:28:07.295Z,19.47
2018-12-05T22:30:38.251Z,12.30
2018-12-05T22:33:10.152Z,13.90
2018-12-05T22:38:45.545Z,13.43
2018-12-05T22:41:29.158Z,67.03
2018-12-05T22:44:12.369Z,84.50
2018-12-05T22:46:54.812Z,61.57
2018-12-05T22:49:37.440Z,40.80
2018-12-05T22:52:20.043Z,79.83
2018-12-05T22:55:02.845Z,26.30
2018-12-05T22:57:45.535Z,27.53
2018-12-05T23:00:28.012Z,61.30
2018-12-05T23:03:12.676Z,201.90
2018-12-05T23:05:55.566Z,178.83
2018-12-05T23:08:38.225Z,39.10
2018-12-05T23:11:28.974Z,70.67
2018-12-05T23:14:11.804Z,61.10
2018-12-05T23:16:55.528Z,177.77
2018-12-05T23:19:38.385Z,171.13
2018-12-05T23:22:24.827Z,124.43
2018-12-05T23:25:09.021Z,249.67
2018-12-05T23:27:51.380Z,156.63
2018-12-05T23:30:34.477Z,79.20
2018-12-05T23:33:17.336Z,173.57
2018-12-05T23:36:00.403Z,90.43
2018-12-05T23:38:43.522Z,76.37
2018-12-05T23:41:26.433Z,73.50
2018-12-05T23:44:10.697Z,58.13
2018-12-05T23:46:53.403Z,124.77
2018-12-05T23:49:35.669Z,128.93
2018-12-05T23:52:18.864Z,109.53
2018-12-05T23:55:02.081Z,78.83
2018-12-05T23:57:45.540Z,153.07
